createdAt,value
2018-04-30T00:01:10.523Z,8.25
2018-04-30T00:03:36.940Z,8.40
2018-04-30T00:06:03.436Z,8.50
2018-04-30T00:08:29.899Z,7.97
2018-04-30T00:11:09.872Z,8.10
2018-04-30T00:13:37.035Z,8.60
2018-04-30T00:16:04.342Z,8.77
2018-04-30T00:21:32.236Z,9.00
2018-04-30T00:23:58.682Z,8.63
2018-04-30T00:26:25.842Z,8.27
2018-04-30T00:28:53.010Z,8.57
2018-04-30T00:31:21.251Z,8.60
2018-04-30T00:33:47.640Z,8.10
2018-04-30T00:36:15.562Z,8.70
2018-04-30T00:38:42.727Z,8.43
2018-04-30T00:41:34.974Z,9.37
2018-04-30T00:44:01.417Z,8.60
2018-04-30T00:46:28.559Z,8.70
2018-04-30T00:48:55.006Z,8.80
2018-04-30T00:51:21.513Z,8.80
2018-04-30T00:53:47.974Z,8.90
2018-04-30T00:56:14.393Z,8.80
2018-04-30T00:58:51.208Z,8.63
2018-04-30T01:01:18.381Z,8.27
2018-04-30T01:03:45.547Z,8.70
2018-04-30T01:06:19.989Z,8.85
2018-04-30T01:08:46.440Z,8.75
2018-04-30T01:11:13.002Z,8.80
2018-04-30T01:13:39.423Z,8.65
2018-04-30T01:16:07.916Z,8.70
2018-04-30T01:18:34.416Z,8.30
2018-04-30T01:21:01.594Z,8.80
2018-04-30T01:23:28.043Z,8.60
2018-04-30T01:25:56.248Z,9.50
2018-04-30T01:28:23.174Z,9.00
2018-04-30T01:30:49.618Z,8.65
2018-04-30T01:33:16.097Z,8.65
2018-04-30T01:35:42.518Z,8.55
2018-04-30T01:38:08.984Z,8.80
2018-04-30T01:40:35.424Z,8.90
2018-04-30T01:43:05.797Z,8.98
2018-04-30T01:45:32.236Z,8.70
2018-04-30T01:47:58.679Z,8.98
2018-04-30T01:50:25.121Z,9.40
2018-04-30T01:52:51.525Z,9.85
2018-04-30T01:55:18.011Z,9.70
2018-04-30T01:57:45.191Z,10.07
2018-04-30T02:00:11.893Z,10.32
2018-04-30T02:02:38.355Z,9.70
2018-04-30T02:05:04.812Z,10.05
2018-04-30T02:07:31.223Z,11.10
2018-04-30T02:09:57.644Z,11.12
2018-04-30T02:12:24.819Z,10.80
2018-04-30T02:14:51.400Z,10.40
2018-04-30T02:17:18.572Z,11.88
2018-04-30T02:19:45.847Z,11.10
2018-04-30T02:22:13.121Z,10.90
2018-04-30T02:24:40.281Z,10.57
2018-04-30T02:27:07.571Z,10.57
2018-04-30T02:29:34.747Z,10.60
2018-04-30T02:32:01.298Z,10.70
2018-04-30T02:34:28.485Z,10.73
2018-04-30T02:36:54.964Z,10.80
2018-04-30T02:39:21.385Z,10.32
2018-04-30T02:41:47.837Z,11.40
2018-04-30T02:44:14.992Z,11.20
2018-04-30T02:46:42.171Z,11.07
2018-04-30T02:49:09.349Z,10.68
2018-04-30T02:51:35.795Z,10.10
2018-04-30T02:54:03.056Z,11.40
2018-04-30T02:56:29.532Z,11.50
2018-04-30T02:58:56.713Z,10.68
2018-04-30T03:01:23.851Z,11.10
2018-04-30T03:03:51.035Z,11.43
2018-04-30T03:06:17.478Z,11.68
2018-04-30T03:08:43.910Z,11.07
2018-04-30T03:11:10.368Z,11.48
2018-04-30T03:13:37.807Z,11.75
2018-04-30T03:16:25.365Z,12.68
2018-04-30T03:18:51.864Z,11.30
2018-04-30T03:21:19.791Z,11.70
2018-04-30T03:23:46.274Z,11.63
2018-04-30T03:26:12.793Z,11.80
2018-04-30T03:28:39.270Z,10.90
2018-04-30T03:31:05.767Z,11.27
2018-04-30T03:33:32.223Z,11.50
2018-04-30T03:35:58.642Z,11.40
2018-04-30T03:38:25.095Z,11.65
2018-04-30T03:40:51.509Z,11.23
2018-04-30T03:43:17.979Z,11.30
2018-04-30T03:45:45.261Z,12.07
2018-04-30T03:48:12.439Z,11.02
2018-04-30T03:50:38.868Z,12.27
2018-04-30T03:53:05.254Z,11.35
2018-04-30T03:55:31.904Z,11.80
2018-04-30T03:57:59.179Z,11.32
2018-04-30T04:00:37.682Z,11.90
2018-04-30T04:03:17.256Z,11.75
2018-04-30T04:05:55.984Z,11.52
2018-04-30T04:08:23.126Z,11.20
2018-04-30T04:10:49.544Z,11.50
2018-04-30T04:13:16.064Z,11.60
2018-04-30T04:15:43.234Z,11.77
2018-04-30T04:18:10.387Z,11.63
2018-04-30T04:20:36.774Z,12.00
2018-04-30T04:23:03.266Z,12.02
2018-04-30T04:25:29.675Z,12.33
2018-04-30T04:27:56.118Z,12.10
2018-04-30T04:30:24.350Z,11.85
2018-04-30T04:32:50.781Z,11.38
2018-04-30T04:35:17.953Z,11.27
2018-04-30T04:37:45.230Z,11.57
2018-04-30T04:40:11.753Z,11.00
2018-04-30T04:42:38.146Z,11.40
2018-04-30T04:45:04.576Z,11.50
2018-04-30T04:47:31.213Z,10.50
2018-04-30T04:49:59.703Z,11.20
2018-04-30T04:52:26.227Z,11.30
2018-04-30T04:54:52.672Z,12.27
2018-04-30T04:57:31.386Z,10.73
2018-04-30T04:59:57.774Z,11.07
2018-04-30T05:02:24.189Z,10.80
2018-04-30T05:07:48.366Z,11.80
2018-04-30T05:10:14.813Z,11.40
2018-04-30T05:12:41.219Z,11.23
2018-04-30T05:15:08.506Z,10.50
2018-04-30T05:18:01.626Z,11.02
2018-04-30T05:20:28.062Z,10.30
2018-04-30T05:22:55.987Z,9.88
2018-04-30T05:25:22.427Z,9.70
2018-04-30T05:28:07.819Z,10.15
2018-04-30T05:30:35.000Z,8.87
2018-04-30T05:33:01.431Z,9.45
2018-04-30T05:35:27.859Z,9.60
2018-04-30T05:38:11.840Z,9.10
2018-04-30T05:40:38.332Z,9.20
2018-04-30T05:43:04.878Z,9.30
2018-04-30T05:45:32.153Z,8.43
2018-04-30T05:51:07.230Z,7.60
2018-04-30T05:53:33.678Z,8.13
2018-04-30T05:56:00.127Z,7.60
2018-04-30T05:58:26.680Z,7.53
2018-04-30T06:00:58.042Z,8.38
2018-04-30T06:03:25.112Z,8.05
2018-04-30T06:05:53.100Z,8.95
2018-04-30T06:08:20.292Z,7.65
2018-04-30T06:10:51.359Z,7.65
2018-04-30T06:13:17.990Z,7.20
2018-04-30T06:15:45.268Z,7.40
2018-04-30T06:18:13.324Z,7.93
2018-04-30T06:20:39.756Z,7.00
2018-04-30T06:23:06.339Z,7.18
2018-04-30T06:25:33.539Z,6.77
2018-04-30T06:28:00.823Z,6.73
2018-04-30T06:30:27.255Z,6.97
2018-04-30T06:32:53.733Z,6.53
2018-04-30T06:35:21.081Z,7.20
2018-04-30T06:37:47.481Z,7.00
2018-04-30T06:40:13.979Z,7.62
2018-04-30T06:42:40.365Z,7.53
2018-04-30T06:45:07.678Z,6.70
2018-04-30T06:47:34.200Z,6.75
2018-04-30T06:50:00.784Z,6.43
2018-04-30T06:52:27.248Z,6.60
2018-04-30T06:54:53.692Z,6.90
2018-04-30T06:57:20.560Z,6.80
2018-04-30T06:59:48.295Z,6.18
2018-04-30T07:02:14.892Z,6.60
2018-04-30T07:04:41.374Z,6.50
2018-04-30T07:07:07.907Z,6.70
2018-04-30T07:09:34.382Z,6.82
2018-04-30T07:12:00.879Z,6.90
2018-04-30T07:14:27.791Z,7.00
2018-04-30T07:16:55.061Z,6.40
2018-04-30T07:19:22.216Z,5.95
2018-04-30T07:21:49.743Z,5.60
2018-04-30T07:24:19.735Z,5.40
2018-04-30T07:26:46.954Z,5.50
2018-04-30T07:29:13.436Z,5.53
2018-04-30T07:31:39.901Z,5.25
2018-04-30T07:34:08.845Z,5.80
2018-04-30T07:36:36.337Z,5.70
2018-04-30T07:39:03.143Z,5.17
2018-04-30T07:41:29.955Z,5.00
2018-04-30T07:44:00.887Z,5.30
2018-04-30T07:46:27.308Z,5.60
2018-04-30T07:48:53.759Z,4.45
2018-04-30T07:51:20.262Z,4.60
2018-04-30T07:53:46.738Z,4.40
2018-04-30T07:56:13.229Z,4.05
2018-04-30T07:58:39.750Z,3.70
2018-04-30T08:01:07.010Z,3.90
2018-04-30T08:03:34.301Z,3.30
2018-04-30T08:06:01.504Z,2.78
2018-04-30T08:08:28.749Z,3.00
2018-04-30T08:10:56.498Z,2.33
2018-04-30T08:13:22.951Z,3.20
2018-04-30T08:15:49.448Z,2.45
2018-04-30T08:18:16.108Z,2.47
2018-04-30T08:20:42.559Z,2.80
2018-04-30T08:23:09.114Z,2.80
2018-04-30T08:25:36.392Z,2.50
2018-04-30T08:28:02.817Z,2.50
2018-04-30T08:30:31.643Z,2.80
2018-04-30T08:32:58.937Z,2.40
2018-04-30T08:35:26.745Z,3.00
2018-04-30T08:37:53.283Z,2.20
2018-04-30T08:40:19.717Z,2.17
2018-04-30T08:42:46.610Z,1.90
2018-04-30T08:45:13.163Z,1.50
2018-04-30T08:47:40.432Z,1.77
2018-04-30T08:50:08.530Z,1.40
2018-04-30T08:52:36.011Z,1.58
2018-04-30T08:55:02.537Z,1.40
2018-04-30T08:57:30.044Z,1.20
2018-04-30T08:59:56.602Z,1.40
2018-04-30T09:02:24.436Z,1.70
2018-04-30T09:04:51.054Z,3.40
2018-04-30T09:07:17.576Z,1.17
2018-04-30T09:09:44.065Z,1.10
2018-04-30T09:12:11.342Z,1.20
2018-04-30T09:14:38.921Z,1.30
2018-04-30T09:17:06.452Z,1.20
2018-04-30T09:19:33.674Z,1.10
2018-04-30T09:22:01.973Z,1.27
2018-04-30T09:24:28.426Z,1.73
2018-04-30T09:26:55.601Z,1.37
2018-04-30T09:29:22.070Z,1.50
2018-04-30T09:31:48.562Z,1.20
2018-04-30T09:34:15.124Z,1.00
2018-04-30T09:36:42.361Z,1.00
2018-04-30T09:39:09.416Z,1.30
2018-04-30T09:41:36.282Z,0.90
2018-04-30T09:44:03.513Z,1.30
2018-04-30T09:46:30.127Z,1.00
2018-04-30T09:48:56.774Z,1.40
2018-04-30T09:51:23.225Z,1.15
2018-04-30T09:53:51.266Z,1.20
2018-04-30T09:56:17.746Z,1.00
2018-04-30T09:58:45.570Z,1.30
2018-04-30T10:01:12.054Z,1.00
2018-04-30T10:03:38.529Z,0.95
2018-04-30T10:06:05.002Z,0.95
2018-04-30T10:08:31.597Z,1.10
2018-04-30T10:10:58.362Z,0.80
2018-04-30T10:13:25.546Z,0.80
2018-04-30T10:15:52.094Z,0.70
2018-04-30T10:18:18.545Z,0.90
2018-04-30T10:20:45.745Z,0.70
2018-04-30T10:23:12.936Z,0.60
2018-04-30T10:25:39.343Z,0.70
2018-04-30T10:28:06.499Z,0.77
2018-04-30T10:30:33.079Z,0.80
2018-04-30T10:32:59.503Z,1.12
2018-04-30T10:35:26.048Z,0.80
2018-04-30T10:37:54.056Z,0.80
2018-04-30T10:40:20.410Z,1.05
2018-04-30T10:42:46.847Z,0.80
2018-04-30T10:45:13.258Z,0.70
2018-04-30T10:47:39.728Z,0.60
2018-04-30T10:50:06.238Z,0.60
2018-04-30T10:52:33.416Z,0.50
2018-04-30T10:54:59.994Z,0.70
2018-04-30T10:57:26.981Z,0.70
2018-04-30T10:59:53.485Z,2.00
2018-04-30T11:02:20.901Z,0.70
2018-04-30T11:04:47.455Z,0.70
2018-04-30T11:07:14.734Z,0.60
2018-04-30T11:09:42.210Z,0.90
2018-04-30T11:12:08.767Z,0.60
2018-04-30T11:14:36.343Z,0.60
2018-04-30T11:17:03.383Z,1.00
2018-04-30T11:19:29.979Z,0.60
2018-04-30T11:21:56.487Z,0.80
2018-04-30T11:24:23.299Z,0.80
2018-04-30T11:26:49.741Z,0.60
2018-04-30T11:29:16.951Z,0.60
2018-04-30T11:31:43.405Z,0.70
2018-04-30T11:34:09.878Z,1.08
2018-04-30T11:36:36.337Z,0.60
2018-04-30T11:39:03.571Z,0.60
2018-04-30T11:52:36.974Z,0.80
2018-04-30T11:55:03.453Z,0.52
2018-04-30T11:57:30.075Z,0.73
2018-04-30T11:59:56.542Z,1.10
2018-04-30T12:02:23.008Z,0.90
2018-04-30T12:04:49.546Z,0.75
2018-04-30T12:07:16.043Z,0.80
2018-04-30T12:09:42.596Z,0.70
2018-04-30T12:12:09.662Z,1.65
2018-04-30T12:14:36.118Z,1.45
2018-04-30T12:17:02.644Z,1.03
2018-04-30T12:19:29.306Z,1.17
2018-04-30T12:21:55.843Z,0.80
2018-04-30T12:24:22.526Z,0.70
2018-04-30T12:26:49.088Z,0.70
2018-04-30T12:29:15.573Z,0.70
2018-04-30T12:31:42.063Z,0.77
2018-04-30T12:34:08.657Z,1.40
2018-04-30T12:36:35.109Z,0.90
2018-04-30T12:39:01.599Z,1.30
2018-04-30T12:41:28.081Z,1.00
2018-04-30T12:43:55.291Z,1.00
2018-04-30T12:46:21.959Z,0.88
2018-04-30T12:48:49.239Z,1.90
2018-04-30T12:51:16.408Z,1.00
2018-04-30T12:53:43.171Z,1.40
2018-04-30T12:56:09.663Z,0.90
2018-04-30T12:58:36.078Z,0.80
2018-04-30T13:01:02.546Z,0.70
2018-04-30T13:03:29.000Z,0.90
2018-04-30T13:05:55.480Z,0.90
2018-04-30T13:08:21.931Z,1.42
2018-04-30T13:10:48.425Z,0.90
2018-04-30T13:13:14.924Z,1.20
2018-04-30T13:15:41.499Z,1.83
2018-04-30T13:18:07.962Z,1.10
2018-04-30T13:20:34.452Z,0.90
2018-04-30T13:23:00.927Z,1.10
2018-04-30T13:25:27.519Z,1.00
2018-04-30T13:27:54.018Z,1.30
2018-04-30T13:30:20.412Z,1.10
2018-04-30T13:32:47.610Z,0.97
2018-04-30T13:35:14.065Z,1.20
2018-04-30T13:50:11.709Z,1.40
2018-04-30T13:52:38.167Z,1.10
2018-04-30T13:55:05.531Z,1.10
2018-04-30T13:57:32.683Z,1.10
2018-04-30T13:59:59.126Z,1.25
2018-04-30T14:02:25.552Z,1.20
2018-04-30T14:04:51.990Z,1.30
2018-04-30T14:07:18.551Z,1.12
2018-04-30T14:09:44.953Z,1.10
2018-04-30T14:12:11.369Z,1.30
2018-04-30T14:14:37.796Z,0.90
2018-04-30T14:17:04.987Z,0.90
2018-04-30T14:19:31.410Z,1.20
2018-04-30T14:21:58.604Z,1.00
2018-04-30T14:24:25.883Z,1.00
2018-04-30T14:26:53.108Z,0.90
2018-04-30T14:29:19.617Z,1.20
2018-04-30T14:31:46.052Z,1.02
2018-04-30T14:34:12.551Z,0.90
2018-04-30T14:36:39.013Z,1.20
2018-04-30T14:39:05.491Z,1.12
2018-04-30T14:41:31.999Z,1.20
2018-04-30T14:43:58.470Z,1.00
2018-04-30T14:46:25.105Z,0.90
2018-04-30T14:48:52.324Z,1.58
2018-04-30T14:51:18.863Z,1.10
2018-04-30T14:53:45.307Z,0.90
2018-04-30T14:56:11.764Z,1.05
2018-04-30T14:58:39.136Z,1.20
2018-04-30T15:01:05.699Z,1.25
2018-04-30T15:03:32.168Z,1.40
2018-04-30T15:05:58.637Z,1.10
2018-04-30T15:08:25.890Z,0.88
2018-04-30T15:10:52.316Z,1.40
2018-04-30T15:13:18.974Z,1.00
2018-04-30T15:15:45.387Z,2.33
2018-04-30T15:18:11.854Z,1.10
2018-04-30T15:20:38.362Z,1.10
2018-04-30T15:23:05.600Z,1.50
2018-04-30T15:25:32.917Z,1.50
2018-04-30T15:28:00.202Z,2.05
2018-04-30T15:30:27.466Z,2.58
2018-04-30T15:32:54.653Z,1.60
2018-04-30T15:35:21.121Z,1.98
2018-04-30T15:37:47.595Z,1.17
2018-04-30T15:40:14.022Z,2.90
2018-04-30T15:42:40.563Z,2.50
2018-04-30T15:45:07.006Z,1.50
2018-04-30T15:47:33.481Z,1.80
2018-04-30T15:50:00.041Z,1.80
2018-04-30T15:52:28.605Z,1.50
2018-04-30T15:54:55.051Z,1.70
2018-04-30T15:57:21.558Z,5.12
2018-04-30T16:00:01.776Z,3.92
2018-04-30T16:02:28.228Z,6.28
2018-04-30T16:04:54.629Z,11.38
2018-04-30T16:07:22.006Z,13.05
2018-04-30T16:09:52.264Z,27.27
2018-04-30T16:12:18.700Z,24.33
2018-04-30T16:14:45.876Z,14.43
2018-04-30T16:17:13.026Z,20.23
2018-04-30T16:19:50.661Z,6.95
2018-04-30T16:22:17.156Z,10.15
2018-04-30T16:24:43.573Z,25.60
2018-04-30T16:27:09.991Z,29.85
2018-04-30T16:32:48.502Z,4.93
2018-04-30T16:35:15.457Z,8.82
2018-04-30T16:37:41.854Z,21.65
2018-04-30T16:40:09.247Z,10.38
2018-04-30T16:42:36.580Z,4.40
2018-04-30T16:45:04.491Z,6.37
2018-04-30T16:47:30.891Z,6.62
2018-04-30T16:49:57.305Z,7.40
2018-04-30T16:52:24.475Z,8.48
2018-04-30T16:54:50.891Z,10.02
2018-04-30T16:57:17.394Z,15.40
2018-04-30T16:59:44.647Z,9.93
2018-04-30T17:02:11.952Z,9.13
2018-04-30T17:04:39.145Z,14.87
2018-04-30T17:07:05.556Z,9.70
2018-04-30T17:09:32.856Z,7.60
2018-04-30T17:12:00.046Z,7.75
2018-04-30T17:14:26.589Z,9.30
2018-04-30T17:16:53.792Z,11.70
2018-04-30T17:19:20.198Z,9.95
2018-04-30T17:21:46.665Z,12.20
2018-04-30T17:24:13.833Z,11.95
2018-04-30T17:26:40.992Z,35.40
2018-04-30T17:29:07.442Z,21.10
2018-04-30T17:31:33.929Z,8.63
2018-04-30T17:34:01.093Z,10.30
2018-04-30T17:36:27.598Z,11.40
2018-04-30T17:38:54.021Z,27.08
2018-04-30T17:41:20.463Z,17.95
2018-04-30T17:43:47.029Z,22.35
2018-04-30T17:46:14.216Z,15.70
2018-04-30T17:48:40.644Z,17.25
2018-04-30T17:51:07.835Z,16.00
2018-04-30T17:53:34.386Z,16.42
2018-04-30T17:56:01.663Z,16.37
2018-04-30T17:58:28.852Z,19.55
2018-04-30T18:00:55.272Z,18.70
2018-04-30T18:03:21.711Z,18.40
2018-04-30T18:05:48.306Z,19.50
2018-04-30T18:08:15.470Z,27.52
2018-04-30T18:10:42.038Z,59.05
2018-04-30T18:13:10.272Z,52.67
2018-04-30T18:15:36.694Z,44.15
2018-04-30T18:18:03.163Z,61.78
2018-04-30T18:20:29.610Z,52.35
2018-04-30T18:22:56.058Z,41.72
2018-04-30T18:25:23.331Z,76.22
2018-04-30T18:27:50.505Z,48.78
2018-04-30T18:30:17.740Z,32.83
2018-04-30T18:32:44.777Z,32.83
2018-04-30T18:35:11.318Z,33.20
2018-04-30T18:37:37.862Z,24.25
2018-04-30T18:40:05.081Z,26.70
2018-04-30T18:42:32.177Z,22.80
2018-04-30T18:44:58.702Z,19.00
2018-04-30T18:47:25.161Z,22.20
2018-04-30T18:49:52.217Z,19.55
2018-04-30T18:52:18.669Z,13.10
2018-04-30T18:54:45.123Z,13.18
2018-04-30T18:57:11.564Z,12.75
2018-04-30T18:59:38.027Z,13.30
2018-04-30T19:02:05.192Z,14.60
2018-04-30T19:04:31.609Z,17.62
2018-04-30T19:06:58.764Z,38.10
2018-04-30T19:09:25.275Z,40.70
2018-04-30T19:11:51.834Z,36.03
2018-04-30T19:14:18.390Z,36.55
2018-04-30T19:16:44.830Z,30.08
2018-04-30T19:19:12.121Z,29.92
2018-04-30T19:21:39.290Z,30.90
2018-04-30T19:24:05.744Z,33.05
2018-04-30T19:26:32.248Z,34.55
2018-04-30T19:28:58.732Z,33.60
2018-04-30T19:31:25.184Z,32.60
2018-04-30T19:33:51.702Z,35.70
2018-04-30T19:36:18.205Z,43.80
2018-04-30T19:38:44.654Z,55.00
2018-04-30T19:41:11.160Z,68.45
2018-04-30T19:43:37.709Z,76.18
2018-04-30T19:46:04.275Z,72.53
2018-04-30T19:48:30.750Z,63.67
2018-04-30T19:50:57.208Z,61.92
2018-04-30T19:53:23.736Z,60.05
2018-04-30T19:55:51.013Z,66.82
2018-04-30T19:58:18.738Z,69.72
2018-04-30T20:00:45.240Z,67.67
2018-04-30T20:03:12.424Z,64.80
2018-04-30T20:05:39.669Z,63.05
2018-04-30T20:08:06.882Z,62.83
2018-04-30T20:10:33.431Z,58.45
2018-04-30T20:13:00.602Z,63.13
2018-04-30T20:15:27.883Z,72.45
2018-04-30T20:17:54.358Z,90.80
2018-04-30T20:20:20.845Z,107.97
2018-04-30T20:22:47.351Z,104.43
2018-04-30T20:25:13.820Z,84.10
2018-04-30T20:27:40.339Z,75.12
2018-04-30T20:30:06.796Z,65.00
2018-04-30T20:32:33.207Z,61.50
2018-04-30T20:34:59.649Z,61.40
2018-04-30T20:37:26.098Z,72.70
2018-04-30T20:39:52.575Z,76.90
2018-04-30T20:42:19.062Z,76.87
2018-04-30T20:44:45.560Z,79.30
2018-04-30T20:47:12.748Z,82.32
2018-04-30T20:49:39.205Z,76.20
2018-04-30T20:52:05.659Z,74.33
2018-04-30T20:54:32.105Z,70.68
2018-04-30T20:56:59.253Z,66.90
2018-04-30T20:59:25.683Z,64.78
2018-04-30T21:01:52.095Z,68.62
2018-04-30T21:04:18.579Z,76.47
2018-04-30T21:06:45.178Z,71.75
2018-04-30T21:09:12.885Z,70.30
2018-04-30T21:11:39.442Z,66.32
2018-04-30T21:14:06.658Z,64.60
2018-04-30T21:16:33.182Z,66.50
2018-04-30T21:18:59.617Z,65.43
2018-04-30T21:21:26.815Z,62.75
2018-04-30T21:23:53.269Z,62.07
2018-04-30T21:26:19.717Z,61.55
2018-04-30T21:28:46.147Z,62.83
2018-04-30T21:31:12.624Z,64.65
2018-04-30T21:33:39.044Z,66.25
2018-04-30T21:36:05.505Z,68.97
2018-04-30T21:38:32.099Z,69.00
2018-04-30T21:40:59.281Z,67.68
2018-04-30T21:43:25.706Z,68.37
2018-04-30T21:45:52.285Z,70.15
2018-04-30T21:48:19.530Z,66.87
2018-04-30T21:50:45.939Z,67.75
2018-04-30T21:53:12.472Z,68.55
2018-04-30T21:55:39.658Z,67.28
2018-04-30T21:58:06.130Z,68.57
2018-04-30T22:00:32.627Z,73.70
2018-04-30T22:02:59.074Z,81.00
2018-04-30T22:05:25.504Z,87.63
2018-04-30T22:07:51.910Z,93.05
2018-04-30T22:10:19.164Z,94.82
2018-04-30T22:12:45.618Z,93.70
2018-04-30T22:15:12.812Z,94.50
2018-04-30T22:17:39.244Z,97.15
2018-04-30T22:20:06.201Z,99.80
2018-04-30T22:22:32.676Z,104.07
2018-04-30T22:24:59.128Z,109.85
2018-04-30T22:27:25.549Z,112.43
2018-04-30T22:29:51.989Z,112.35
2018-04-30T22:32:18.409Z,117.03
2018-04-30T22:34:45.707Z,118.90
2018-04-30T22:37:13.391Z,118.50
2018-04-30T22:39:40.665Z,117.40
2018-04-30T22:42:07.824Z,117.00
2018-04-30T22:44:35.112Z,121.22
2018-04-30T22:47:02.320Z,121.70
2018-04-30T22:49:28.762Z,122.10
2018-04-30T22:51:55.161Z,124.05
2018-04-30T22:54:21.614Z,125.85
2018-04-30T22:56:49.519Z,123.82
2018-04-30T22:59:16.002Z,130.70
2018-04-30T23:01:43.157Z,134.90
2018-04-30T23:04:10.350Z,137.48
2018-04-30T23:06:36.899Z,137.73
2018-04-30T23:09:04.867Z,139.18
2018-04-30T23:11:31.331Z,152.75
2018-04-30T23:13:58.529Z,175.65
2018-04-30T23:16:24.987Z,166.48
2018-04-30T23:18:52.053Z,167.87
2018-04-30T23:21:18.497Z,163.83
2018-04-30T23:23:45.670Z,164.30
2018-04-30T23:26:12.101Z,157.65
2018-04-30T23:28:38.587Z,132.25
2018-04-30T23:31:05.069Z,130.20
2018-04-30T23:33:31.528Z,120.28
2018-04-30T23:35:57.952Z,113.93
2018-04-30T23:38:25.140Z,109.40
2018-04-30T23:40:51.546Z,110.28
2018-04-30T23:43:23.606Z,101.50
2018-04-30T23:45:50.054Z,86.75
2018-04-30T23:48:16.441Z,86.78
2018-04-30T23:50:42.854Z,84.32
2018-04-30T23:53:09.320Z,82.53
2018-04-30T23:55:35.820Z,77.47
2018-04-30T23:58:02.307Z,73.12
